Time;durP1;ratioP1;P1;durP2;ratioP2;P2;SDS_P1;SDS_P2;PMS_P1;PMS_P2;Temp;Humidity;BMP_temperature;BMP_pressure;BME280_temperature;BME280_humidity;BME280_pressure;Samples;Min_cycle;Max_cycle;Signal;HPM_P1;HPM_P2
2022/12/16 00:01:57;;;;;;;16.33;15.20;;;2.70;99.90;;;;;;5010900;28;20026;-84
2022/12/16 00:04:23;;;;;;;16.77;15.47;;;2.70;99.90;;;;;;5011417;28;20357;-84
2022/12/16 00:06:49;;;;;;;18.17;16.63;;;2.70;99.90;;;;;;5011355;28;20041;-84
2022/12/16 00:09:15;;;;;;;14.50;13.60;;;2.70;99.90;;;;;;5011450;28;20371;-84
2022/12/16 00:11:41;;;;;;;16.60;15.33;;;2.70;99.90;;;;;;4994917;28;20522;-84
2022/12/16 00:14:07;;;;;;;18.43;16.70;;;2.70;99.90;;;;;;5012474;28;20030;-84
2022/12/16 00:16:33;;;;;;;13.93;13.13;;;2.70;99.90;;;;;;5012062;28;20041;-83
2022/12/16 00:19:00;;;;;;;17.10;15.70;;;2.70;99.90;;;;;;5012467;28;20049;-83
2022/12/16 00:21:28;;;;;;;17.63;16.27;;;2.70;99.90;;;;;;4992815;28;20464;-83
2022/12/16 00:23:55;;;;;;;16.90;15.67;;;2.70;99.90;;;;;;5007702;28;20022;-83
2022/12/16 00:26:21;;;;;;;14.73;13.83;;;2.70;99.90;;;;;;5007418;28;20061;-84
2022/12/16 00:28:48;;;;;;;17.63;15.80;;;2.70;99.90;;;;;;5024401;28;20026;-84
2022/12/16 00:31:14;;;;;;;15.70;14.60;;;2.70;99.90;;;;;;4992357;28;20075;-84
2022/12/16 00:33:40;;;;;;;15.67;14.53;;;2.70;99.90;;;;;;5025163;28;20384;-84
2022/12/16 00:36:06;;;;;;;16.60;15.27;;;2.70;99.90;;;;;;4992659;28;20415;-84
2022/12/16 00:38:32;;;;;;;13.20;12.27;;;2.70;99.90;;;;;;4991706;28;20039;-83
2022/12/16 00:40:59;;;;;;;15.00;14.13;;;2.70;99.90;;;;;;5007465;28;20098;-84
2022/12/16 00:43:25;;;;;;;14.27;13.30;;;2.60;99.90;;;;;;5010741;28;20034;-83
2022/12/16 00:45:51;;;;;;;14.47;13.07;;;2.60;99.90;;;;;;4994492;28;20026;-84
2022/12/16 00:48:17;;;;;;;14.57;13.53;;;2.60;99.90;;;;;;5011481;28;20034;-83
2022/12/16 00:50:47;;;;;;;13.27;12.50;;;2.60;99.90;;;;;;5011521;28;20038;-84
2022/12/16 00:53:14;;;;;;;13.38;12.45;;;2.60;99.90;;;;;;4994528;28;20038;-83
2022/12/16 00:55:40;;;;;;;15.87;14.53;;;2.60;99.90;;;;;;5032910;28;20049;-84
2022/12/16 00:58:06;;;;;;;14.40;13.13;;;2.60;99.90;;;;;;5015641;28;20029;-83
2022/12/16 01:00:32;;;;;;;16.33;14.93;;;2.60;99.90;;;;;;5014171;28;20042;-84
2022/12/16 01:02:58;;;;;;;13.93;13.07;;;2.50;99.90;;;;;;5014530;28;20037;-84
2022/12/16 01:05:27;;;;;;;12.73;12.03;;;2.50;99.90;;;;;;4998362;28;20022;-84
2022/12/16 01:07:54;;;;;;;14.77;13.73;;;2.50;99.90;;;;;;5013959;28;20034;-85
2022/12/16 01:10:20;;;;;;;14.77;13.67;;;2.50;99.90;;;;;;4998092;28;20045;-84
2022/12/16 01:12:46;;;;;;;12.90;12.20;;;2.50;99.90;;;;;;5014436;28;20030;-84
2022/12/16 01:15:13;;;;;;;13.37;12.57;;;2.50;99.90;;;;;;4997458;28;20037;-83
2022/12/16 01:17:40;;;;;;;13.27;12.43;;;2.50;99.90;;;;;;5014159;28;20022;-83
2022/12/16 01:20:07;;;;;;;14.43;13.23;;;2.40;99.90;;;;;;4970112;28;20035;-83
2022/12/16 01:22:33;;;;;;;14.10;13.00;;;2.40;99.90;;;;;;4990861;28;20050;-83
2022/12/16 01:24:59;;;;;;;12.30;11.60;;;2.40;99.90;;;;;;4991227;28;20034;-84
2022/12/16 01:27:26;;;;;;;13.90;12.67;;;2.40;99.90;;;;;;4975444;28;20404;-84
2022/12/16 01:29:52;;;;;;;13.63;12.73;;;2.40;99.90;;;;;;4991170;28;20049;-84
2022/12/16 01:32:19;;;;;;;13.43;12.43;;;2.40;99.90;;;;;;4990870;28;20479;-83
2022/12/16 01:34:51;;;;;;;13.70;12.50;;;2.40;99.90;;;;;;4991100;28;20046;-84
2022/12/16 01:37:17;;;;;;;13.83;12.63;;;2.40;99.90;;;;;;4990666;28;20034;-83
2022/12/16 01:39:44;;;;;;;14.13;12.80;;;2.30;99.90;;;;;;4975350;28;20065;-84
2022/12/16 01:42:11;;;;;;;14.47;12.80;;;2.30;99.90;;;;;;4990913;28;20027;-84
2022/12/16 01:44:37;;;;;;;15.37;13.93;;;2.30;99.90;;;;;;4990838;28;20384;-84
2022/12/16 01:47:04;;;;;;;13.07;12.20;;;2.30;99.90;;;;;;4990759;28;20373;-84
2022/12/16 01:49:37;;;;;;;15.87;14.37;;;2.30;99.90;;;;;;4975931;28;20045;-83
2022/12/16 01:52:04;;;;;;;15.37;14.07;;;2.30;99.90;;;;;;4990505;28;20029;-84
2022/12/16 01:54:52;;;;;;;16.77;15.07;;;2.20;99.90;;;;;;4989849;28;20027;-83
2022/12/16 01:57:28;;;;;;;15.20;14.00;;;2.20;99.90;;;;;;5012295;28;20049;-84
2022/12/16 01:59:54;;;;;;;16.37;14.67;;;2.20;99.90;;;;;;4997770;28;20022;-84
2022/12/16 02:02:20;;;;;;;15.33;14.13;;;2.20;99.90;;;;;;4996710;28;20395;-83
2022/12/16 02:07:31;;;;;;;14.30;13.07;;;2.10;99.90;;;;;;5000823;28;20041;-84
2022/12/16 02:09:58;;;;;;;14.40;13.20;;;2.10;99.90;;;;;;5013169;28;20033;-83
2022/12/16 02:12:48;;;;;;;14.77;13.37;;;2.00;99.90;;;;;;4997195;28;20053;-84
2022/12/16 02:15:25;;;;;;;12.57;11.63;;;2.00;99.90;;;;;;5012804;28;20030;-83
2022/12/16 02:18:16;;;;;;;12.43;11.63;;;1.90;99.90;;;;;;4997583;28;20030;-84
2022/12/16 02:21:10;;;;;;;16.38;14.88;;;1.80;99.90;;;;;;5000351;28;20031;-83
2022/12/16 02:23:36;;;;;;;18.77;14.87;;;1.80;99.90;;;;;;5007375;28;20057;-83
2022/12/16 02:26:08;;;;;;;16.30;15.03;;;1.80;99.90;;;;;;4994393;28;20046;-84
2022/12/16 02:29:01;;;;;;;18.80;17.00;;;1.80;99.90;;;;;;4994410;28;20030;-84
2022/12/16 02:31:43;;;;;;;18.17;16.60;;;1.80;99.90;;;;;;4994058;28;20027;-83
2022/12/16 02:34:12;;;;;;;18.43;16.97;;;1.80;99.90;;;;;;5008620;28;20030;-83
2022/12/16 02:36:57;;;;;;;18.63;17.03;;;1.70;99.90;;;;;;5025478;28;20466;-83
2022/12/16 02:39:33;;;;;;;17.77;16.37;;;1.70;99.90;;;;;;4994346;28;20023;-83
2022/12/16 02:42:25;;;;;;;17.77;16.30;;;1.70;99.90;;;;;;5025874;28;20031;-84
2022/12/16 02:44:54;;;;;;;;;;;1.70;99.90;;;;;;5026254;28;20018;-84
2022/12/16 02:47:19;;;;;;;17.50;15.67;;;1.70;99.90;;;;;;5008622;28;19917;-84
2022/12/16 02:49:48;;;;;;;17.87;16.37;;;1.80;99.90;;;;;;5008856;28;20030;-84
2022/12/16 02:52:14;;;;;;;16.87;15.47;;;1.80;99.90;;;;;;5025772;28;20019;-84
2022/12/16 02:54:41;;;;;;;16.80;15.40;;;1.80;99.90;;;;;;5025448;28;20037;-83
2022/12/16 02:57:07;;;;;;;15.93;14.63;;;1.70;99.90;;;;;;5042502;28;20029;-83
2022/12/16 02:59:39;;;;;;;16.17;14.67;;;1.70;99.90;;;;;;5013603;28;20029;-84
2022/12/16 03:02:54;;;;;;;15.77;14.47;;;1.70;99.90;;;;;;5007610;28;20061;-83
2022/12/16 03:05:40;;;;;;;16.30;14.90;;;1.60;99.90;;;;;;5016722;28;20026;-83
2022/12/16 03:08:09;;;;;;;18.10;14.57;;;1.60;99.90;;;;;;5015001;28;20033;-84
2022/12/16 03:10:45;;;;;;;15.63;14.07;;;1.50;99.90;;;;;;5040083;28;20021;-83
2022/12/16 03:13:11;;;;;;;15.63;14.13;;;1.50;99.90;;;;;;5020470;28;20029;-84
2022/12/16 03:15:37;;;;;;;15.30;14.00;;;1.50;99.90;;;;;;5011817;28;20034;-84
2022/12/16 03:18:04;;;;;;;17.40;14.80;;;1.40;99.90;;;;;;5028572;28;20037;-84
2022/12/16 03:20:51;;;;;;;15.13;13.63;;;1.40;99.90;;;;;;5028160;28;20525;-84
2022/12/16 03:23:22;;;;;;;14.27;12.77;;;1.40;99.90;;;;;;5012409;28;20029;-83
2022/12/16 03:25:49;;;;;;;15.37;13.60;;;1.40;99.90;;;;;;5022346;28;20037;-84
2022/12/16 03:28:31;;;;;;;15.70;14.10;;;1.40;99.90;;;;;;5015568;28;20049;-84
2022/12/16 03:31:06;;;;;;;14.53;13.33;;;1.40;99.90;;;;;;5048346;28;20036;-84
2022/12/16 03:33:38;;;;;;;14.93;13.33;;;1.40;99.90;;;;;;5031863;28;20033;-84
2022/12/16 03:36:23;;;;;;;15.10;13.70;;;1.30;99.90;;;;;;5025042;28;20048;-83
2022/12/16 03:38:49;;;;;;;15.97;14.43;;;1.30;99.90;;;;;;5013519;28;20032;-84
2022/12/16 03:41:15;;;;;;;15.97;13.90;;;1.30;99.90;;;;;;4983857;28;20051;-84
2022/12/16 03:43:42;;;;;;;17.73;13.97;;;1.30;99.90;;;;;;4972882;28;20468;-84
2022/12/16 03:46:08;;;;;;;16.83;14.53;;;1.30;99.90;;;;;;4972212;28;20034;-84
2022/12/16 03:48:34;;;;;;;15.20;13.87;;;1.20;99.90;;;;;;4972259;28;20382;-83
2022/12/16 03:51:00;;;;;;;14.73;13.20;;;1.20;99.90;;;;;;4973788;28;20380;-83
2022/12/16 03:53:26;;;;;;;14.37;12.97;;;1.10;99.90;;;;;;4972668;28;20026;-84
2022/12/16 03:55:53;;;;;;;14.33;12.93;;;1.00;99.90;;;;;;4986322;28;20033;-83
2022/12/16 03:58:19;;;;;;;14.47;13.07;;;1.00;99.90;;;;;;4995474;28;20034;-84
2022/12/16 04:00:46;;;;;;;14.83;13.13;;;1.00;99.90;;;;;;5011035;28;20022;-83
2022/12/16 04:03:12;;;;;;;13.90;12.60;;;1.00;99.90;;;;;;5012438;28;20034;-84
2022/12/16 04:05:38;;;;;;;15.93;14.10;;;1.00;99.90;;;;;;4995268;28;20499;-84
2022/12/16 04:08:05;;;;;;;17.67;15.67;;;1.00;99.90;;;;;;5012600;28;20041;-83
2022/12/16 04:24:18;;;;;;;16.23;14.40;;;0.90;99.90;;;;;;4996531;28;20045;-84
2022/12/16 04:29:29;;;;;;;21.43;15.47;;;0.80;99.90;;;;;;4996529;28;20042;-84
2022/12/16 04:31:55;;;;;;;16.80;13.10;;;0.80;99.90;;;;;;4991273;28;20038;-84
2022/12/16 04:34:24;;;;;;;16.70;14.10;;;0.80;99.90;;;;;;4977168;28;20388;-84
